Time;durP1;ratioP1;P1;durP2;ratioP2;P2;SDS_P1;SDS_P2;PMS_P1;PMS_P2;Temp;Humidity;BMP_temperature;BMP_pressure;BME280_temperature;BME280_humidity;BME280_pressure;Samples;Min_cycle;Max_cycle;Signal;HPM_P1;HPM_P2
2023/09/10 00:01:03;;;;;;;18.90;14.23;;;17.60;45.50;;;;;;5055736;27;46843;-70
2023/09/10 00:03:29;;;;;;;20.40;14.00;;;17.50;45.90;;;;;;5049991;28;46506;-69
2023/09/10 00:05:55;;;;;;;18.80;14.53;;;17.50;46.30;;;;;;5057389;28;46489;-72
2023/09/10 00:08:21;;;;;;;29.00;14.23;;;17.40;46.30;;;;;;5057636;28;47427;-71
2023/09/10 00:10:47;;;;;;;22.60;13.70;;;17.40;46.50;;;;;;5055583;28;46533;-70
2023/09/10 00:13:13;;;;;;;16.60;14.30;;;17.30;46.60;;;;;;5057054;28;46464;-69
2023/09/10 00:15:39;;;;;;;18.77;14.60;;;17.30;46.60;;;;;;5071867;27;46117;-69
2023/09/10 00:18:05;;;;;;;22.50;15.70;;;17.30;46.60;;;;;;5060333;27;46389;-71
2023/09/10 00:20:30;;;;;;;23.70;15.40;;;17.30;46.50;;;;;;5061868;28;46413;-70
2023/09/10 00:22:56;;;;;;;27.53;15.70;;;17.30;46.50;;;;;;5060987;27;46421;-70
2023/09/10 00:25:25;;;;;;;19.40;15.73;;;17.30;46.60;;;;;;5061421;28;46401;-70
2023/09/10 00:27:51;;;;;;;22.87;15.93;;;17.30;46.60;;;;;;5057975;28;48047;-71
2023/09/10 00:30:17;;;;;;;24.23;16.33;;;17.20;46.60;;;;;;5055427;28;46349;-69
2023/09/10 00:32:43;;;;;;;20.40;15.60;;;17.20;46.80;;;;;;5059867;28;46753;-69
2023/09/10 00:35:08;;;;;;;18.90;15.20;;;17.20;46.90;;;;;;5053810;27;46396;-69
2023/09/10 00:37:34;;;;;;;22.53;15.20;;;17.20;47.20;;;;;;5055189;28;47900;-70
2023/09/10 00:40:00;;;;;;;20.23;16.10;;;17.10;47.20;;;;;;5055587;27;46432;-71
2023/09/10 00:42:26;;;;;;;24.63;15.07;;;17.10;47.30;;;;;;5057768;28;45796;-71
2023/09/10 00:44:51;;;;;;;20.90;15.73;;;17.20;47.60;;;;;;5054366;28;46413;-69
2023/09/10 00:47:17;;;;;;;19.40;15.40;;;17.20;47.40;;;;;;5053842;28;47973;-68
2023/09/10 00:49:44;;;;;;;20.80;15.37;;;17.10;47.40;;;;;;5062463;28;46529;-69
2023/09/10 00:52:11;;;;;;;23.47;17.50;;;17.10;47.60;;;;;;5057200;28;46531;-71
2023/09/10 00:54:37;;;;;;;24.03;16.70;;;17.10;47.70;;;;;;5051460;28;46452;-70
2023/09/10 00:57:04;;;;;;;30.07;16.77;;;17.10;48.00;;;;;;5051514;28;47870;-71
2023/09/10 00:59:30;;;;;;;25.03;18.03;;;17.10;48.00;;;;;;5053570;28;46601;-71
2023/09/10 01:01:58;;;;;;;23.10;17.10;;;17.10;48.10;;;;;;5055369;28;46493;-68
2023/09/10 01:04:24;;;;;;;20.30;15.70;;;17.10;48.30;;;;;;5055083;28;46425;-70
2023/09/10 01:06:56;;;;;;;31.13;17.67;;;17.00;48.30;;;;;;5052977;28;47929;-71
2023/09/10 01:09:21;;;;;;;20.50;15.57;;;17.00;48.70;;;;;;5055281;28;46382;-70
2023/09/10 01:11:57;;;;;;;20.70;17.03;;;17.00;48.80;;;;;;5059076;28;46375;-71
2023/09/10 01:14:34;;;;;;;23.33;15.80;;;17.00;48.90;;;;;;5051348;28;46481;-72
2023/09/10 01:17:23;;;;;;;23.33;17.40;;;17.00;49.00;;;;;;5054820;28;47810;-72
2023/09/10 01:19:52;;;;;;;28.03;17.20;;;16.90;49.10;;;;;;5052196;28;46446;-71
2023/09/10 01:22:38;;;;;;;27.53;16.17;;;17.00;49.00;;;;;;5058661;28;45811;-71
2023/09/10 01:25:05;;;;;;;23.53;17.20;;;17.00;49.10;;;;;;5053637;28;46532;-70
2023/09/10 01:27:31;;;;;;;23.97;16.50;;;17.00;49.20;;;;;;5054108;28;48063;-71
2023/09/10 01:29:56;;;;;;;30.00;16.90;;;16.90;49.30;;;;;;5055865;27;46540;-71
2023/09/10 01:32:38;;;;;;;24.07;15.40;;;16.90;49.40;;;;;;5059686;27;46484;-71
2023/09/10 01:35:10;;;;;;;23.13;17.27;;;16.90;49.40;;;;;;5054661;28;46605;-71
2023/09/10 01:37:45;;;;;;;21.97;17.10;;;16.90;49.40;;;;;;5072880;27;47058;-71
2023/09/10 01:40:16;;;;;;;32.47;17.83;;;16.90;49.70;;;;;;5069939;28;46471;-71
2023/09/10 01:42:44;;;;;;;23.77;16.00;;;16.80;49.70;;;;;;5061468;28;46441;-70
2023/09/10 01:45:10;;;;;;;26.40;17.27;;;16.80;50.00;;;;;;5059841;28;46331;-71
2023/09/10 01:47:36;;;;;;;22.30;16.90;;;16.70;50.30;;;;;;5051253;28;47899;-70
2023/09/10 01:50:02;;;;;;;20.20;15.80;;;16.70;50.40;;;;;;5056543;28;46440;-71
2023/09/10 01:52:28;;;;;;;26.90;16.37;;;16.70;50.50;;;;;;5053912;28;47016;-70
2023/09/10 01:54:53;;;;;;;24.03;16.20;;;16.70;50.70;;;;;;5053154;27;46752;-69
2023/09/10 01:57:19;;;;;;;19.60;15.20;;;16.70;50.60;;;;;;5052264;28;47975;-69
2023/09/10 01:59:45;;;;;;;20.83;15.07;;;16.70;50.60;;;;;;5065547;27;46505;-69
2023/09/10 02:02:10;;;;;;;27.57;17.03;;;16.70;50.60;;;;;;5055814;28;46507;-69
2023/09/10 02:04:36;;;;;;;21.20;16.30;;;16.60;50.80;;;;;;5070258;27;46396;-70
2023/09/10 02:07:02;;;;;;;27.23;16.73;;;16.60;51.30;;;;;;5055053;27;48274;-71
2023/09/10 02:09:27;;;;;;;21.80;16.87;;;16.60;51.50;;;;;;5054313;28;46510;-69
2023/09/10 02:11:56;;;;;;;24.77;16.87;;;16.70;51.50;;;;;;5049514;28;45778;-69
2023/09/10 02:14:23;;;;;;;25.60;17.30;;;16.60;51.60;;;;;;5067535;28;46772;-69
2023/09/10 02:16:48;;;;;;;31.27;16.87;;;16.60;51.70;;;;;;5057495;28;47920;-69
2023/09/10 02:19:14;;;;;;;25.90;18.77;;;16.60;51.80;;;;;;5052305;28;46533;-69
2023/09/10 02:21:40;;;;;;;25.13;18.50;;;16.60;51.90;;;;;;5052532;28;46787;-70
2023/09/10 02:24:06;;;;;;;25.53;17.20;;;16.60;51.80;;;;;;5054445;28;46705;-69
2023/09/10 02:26:31;;;;;;;21.90;17.33;;;16.60;51.80;;;;;;5056894;28;48084;-69
2023/09/10 02:28:57;;;;;;;26.60;16.33;;;16.60;52.00;;;;;;5053956;28;46350;-71
2023/09/10 02:31:23;;;;;;;22.80;16.07;;;16.60;52.00;;;;;;5053233;28;46476;-71
2023/09/10 02:33:48;;;;;;;19.40;15.20;;;16.60;51.60;;;;;;5054231;28;46628;-70
2023/09/10 02:36:14;;;;;;;23.67;15.77;;;16.60;51.60;;;;;;5056552;28;47782;-69
2023/09/10 02:38:40;;;;;;;21.07;15.90;;;16.60;51.70;;;;;;5051323;27;46480;-69
2023/09/10 02:41:06;;;;;;;23.47;15.50;;;16.50;51.60;;;;;;5071018;27;46400;-69
2023/09/10 02:43:31;;;;;;;25.20;18.60;;;16.60;51.90;;;;;;5050876;28;46667;-69
2023/09/10 02:45:57;;;;;;;21.50;16.77;;;16.60;51.80;;;;;;5060487;28;47795;-70
2023/09/10 02:48:23;;;;;;;25.30;16.30;;;16.50;52.00;;;;;;5052643;28;46511;-69
2023/09/10 02:50:48;;;;;;;21.57;16.07;;;16.50;52.10;;;;;;5060650;27;46616;-69
2023/09/10 02:53:14;;;;;;;22.10;15.77;;;16.40;52.30;;;;;;5055456;28;46434;-71
2023/09/10 02:55:40;;;;;;;23.77;16.30;;;16.40;52.50;;;;;;5049995;27;48143;-71
2023/09/10 02:58:06;;;;;;;21.53;15.80;;;16.40;52.60;;;;;;5054343;28;46617;-70
2023/09/10 03:00:31;;;;;;;23.33;15.63;;;16.40;52.70;;;;;;5050812;28;46804;-72
2023/09/10 03:02:57;;;;;;;24.07;16.20;;;16.40;52.60;;;;;;5053076;28;46461;-70
2023/09/10 03:05:24;;;;;;;21.20;15.73;;;16.40;52.40;;;;;;5051424;28;47797;-70
2023/09/10 03:07:54;;;;;;;22.20;16.20;;;16.40;52.40;;;;;;5068149;27;46399;-70
2023/09/10 03:10:20;;;;;;;24.30;16.57;;;16.40;52.30;;;;;;5051826;28;46362;-71
2023/09/10 03:12:46;;;;;;;21.07;15.23;;;16.30;52.30;;;;;;5058893;27;46477;-71
2023/09/10 03:15:11;;;;;;;21.17;14.97;;;16.30;52.40;;;;;;5051616;28;48742;-71
2023/09/10 03:17:37;;;;;;;21.90;15.60;;;16.20;52.40;;;;;;5059657;28;46703;-70
2023/09/10 03:20:04;;;;;;;21.53;15.57;;;16.20;52.60;;;;;;5058608;27;46442;-69
2023/09/10 03:22:30;;;;;;;22.37;15.43;;;16.10;52.70;;;;;;5059712;28;46389;-70
2023/09/10 03:24:58;;;;;;;21.30;16.30;;;16.10;52.90;;;;;;5054308;28;48059;-70
2023/09/10 03:27:23;;;;;;;22.20;15.90;;;16.00;52.90;;;;;;5052440;28;46469;-70
2023/09/10 03:29:49;;;;;;;19.30;15.40;;;16.00;53.20;;;;;;5053455;27;46015;-70
2023/09/10 03:32:15;;;;;;;27.23;15.60;;;16.00;53.50;;;;;;5058472;28;46884;-70
2023/09/10 03:34:42;;;;;;;22.97;16.40;;;16.00;53.70;;;;;;5049214;28;47969;-70
2023/09/10 03:37:08;;;;;;;17.50;14.63;;;15.90;53.40;;;;;;5059175;28;46521;-71
2023/09/10 03:39:34;;;;;;;22.40;15.07;;;15.90;53.40;;;;;;5069778;27;46422;-70
2023/09/10 03:42:00;;;;;;;20.60;15.00;;;15.90;53.40;;;;;;5049535;28;46480;-70
2023/09/10 03:44:25;;;;;;;28.30;14.13;;;15.90;53.30;;;;;;5065260;27;47170;-71
2023/09/10 03:46:52;;;;;;;20.33;14.47;;;15.90;53.30;;;;;;5052820;27;46319;-70
2023/09/10 03:49:18;;;;;;;19.40;15.03;;;15.90;53.30;;;;;;5051173;28;46409;-71
2023/09/10 03:51:44;;;;;;;21.10;15.10;;;15.90;53.10;;;;;;5060236;28;46545;-70
2023/09/10 03:54:11;;;;;;;19.73;14.20;;;15.90;53.10;;;;;;5061840;28;46705;-70
2023/09/10 03:56:39;;;;;;;20.57;14.80;;;15.90;52.90;;;;;;5074096;28;46444;-70
2023/09/10 03:59:06;;;;;;;20.90;16.43;;;16.00;53.10;;;;;;5061925;28;46393;-70
2023/09/10 04:01:32;;;;;;;22.90;16.17;;;15.90;53.00;;;;;;5060062;28;46786;-72
2023/09/10 04:03:58;;;;;;;20.07;14.77;;;16.00;53.20;;;;;;5056379;28;46480;-70
2023/09/10 04:06:24;;;;;;;18.10;14.30;;;16.00;53.10;;;;;;5059169;28;46393;-72
2023/09/10 04:08:49;;;;;;;26.63;16.50;;;16.00;52.90;;;;;;5053962;28;46544;-71
2023/09/10 04:11:18;;;;;;;17.57;13.47;;;16.00;52.70;;;;;;5070567;28;46488;-69
2023/09/10 04:13:44;;;;;;;23.80;15.60;;;16.00;52.80;;;;;;5050152;27;46582;-70
2023/09/10 04:16:09;;;;;;;19.30;14.23;;;15.90;52.90;;;;;;5055858;28;46368;-71
2023/09/10 04:18:35;;;;;;;21.83;15.73;;;16.00;53.00;;;;;;5059157;28;46484;-71
2023/09/10 04:21:04;;;;;;;19.07;13.00;;;15.90;53.00;;;;;;5057085;28;46553;-71
2023/09/10 04:23:30;;;;;;;21.10;13.37;;;15.90;53.20;;;;;;5056144;28;46405;-69
2023/09/10 04:26:00;;;;;;;17.57;14.00;;;15.90;53.10;;;;;;5072874;28;45939;-69
2023/09/10 04:28:25;;;;;;;17.10;13.43;;;15.90;53.10;;;;;;5057577;28;46339;-70
2023/09/10 04:30:51;;;;;;;20.20;15.77;;;15.90;53.00;;;;;;5060399;28;46587;-70
2023/09/10 04:33:17;;;;;;;24.23;17.17;;;15.90;53.20;;;;;;5061496;28;47853;-71
2023/09/10 04:35:57;;;;;;;27.07;17.30;;;15.90;53.00;;;;;;5063666;27;46526;-71
2023/09/10 04:38:23;;;;;;;22.77;16.67;;;15.90;52.90;;;;;;5060443;28;46425;-69
2023/09/10 04:40:49;;;;;;;21.30;16.30;;;16.00;52.90;;;;;;5060636;28;46692;-70
2023/09/10 04:43:15;;;;;;;23.57;16.30;;;16.00;53.20;;;;;;5054238;27;49002;-69
2023/09/10 04:45:40;;;;;;;17.80;14.43;;;15.90;53.60;;;;;;5060050;27;46400;-69
2023/09/10 04:48:06;;;;;;;23.13;14.57;;;15.90;53.60;;;;;;5055141;28;45805;-70
2023/09/10 04:50:32;;;;;;;19.27;15.70;;;15.90;53.40;;;;;;5058620;28;46696;-68
2023/09/10 04:53:01;;;;;;;20.30;14.40;;;15.90;53.40;;;;;;5054877;28;48047;-70
2023/09/10 04:55:27;;;;;;;21.43;15.07;;;15.80;53.40;;;;;;5056748;28;46551;-71
2023/09/10 04:57:52;;;;;;;21.13;14.67;;;15.80;53.60;;;;;;5059502;27;46479;-69
2023/09/10 05:00:18;;;;;;;22.70;15.33;;;15.80;53.80;;;;;;5054031;28;46064;-70
2023/09/10 05:02:44;;;;;;;26.53;15.30;;;15.80;53.80;;;;;;5052645;28;47702;-68
2023/09/10 05:05:09;;;;;;;20.57;15.43;;;15.80;53.60;;;;;;5062839;27;46754;-71
2023/09/10 05:07:35;;;;;;;23.10;15.63;;;15.90;53.40;;;;;;5059641;28;46521;-68
2023/09/10 05:10:01;;;;;;;19.90;14.17;;;16.00;53.20;;;;;;5053491;28;46374;-70
2023/09/10 05:12:27;;;;;;;18.87;14.90;;;16.10;53.00;;;;;;5053640;27;47680;-70
2023/09/10 05:14:52;;;;;;;19.67;15.40;;;16.10;52.70;;;;;;5057018;28;46475;-70
2023/09/10 05:17:18;;;;;;;19.77;14.97;;;16.20;52.40;;;;;;5056713;28;46540;-69
2023/09/10 05:19:44;;;;;;;18.03;14.97;;;16.40;52.30;;;;;;5053323;27;46457;-69
2023/09/10 05:22:10;;;;;;;19.10;13.70;;;16.40;52.20;;;;;;5059025;28;48803;-70
2023/09/10 05:24:36;;;;;;;22.03;15.80;;;16.50;51.90;;;;;;5054172;28;46635;-71
2023/09/10 05:27:02;;;;;;;22.23;15.20;;;16.60;51.70;;;;;;5061330;28;46765;-70
2023/09/10 05:29:28;;;;;;;21.23;13.20;;;16.80;51.20;;;;;;5059467;28;46804;-70
2023/09/10 05:31:54;;;;;;;17.67;13.57;;;17.30;51.60;;;;;;5059657;28;48788;-69
2023/09/10 05:34:19;;;;;;;17.13;11.77;;;17.70;52.20;;;;;;5057962;28;46507;-70
2023/09/10 05:36:45;;;;;;;16.93;12.40;;;18.10;52.20;;;;;;5057449;28;46363;-69
2023/09/10 05:39:11;;;;;;;16.53;11.37;;;18.60;51.80;;;;;;5062985;28;46436;-69
2023/09/10 05:41:36;;;;;;;14.73;12.20;;;18.90;50.60;;;;;;5052537;28;49142;-70
2023/09/10 05:44:03;;;;;;;14.67;11.30;;;19.30;49.80;;;;;;5055868;27;46465;-70
2023/09/10 05:46:29;;;;;;;15.83;11.20;;;19.60;48.40;;;;;;5062304;28;46466;-69
2023/09/10 05:48:55;;;;;;;14.87;10.10;;;20.00;47.70;;;;;;5071154;27;46794;-68
2023/09/10 05:51:23;;;;;;;13.57;11.07;;;20.30;45.50;;;;;;5059178;28;48175;-69
2023/09/10 05:53:49;;;;;;;13.07;10.70;;;20.60;43.90;;;;;;5060661;28;46498;-69
2023/09/10 05:56:15;;;;;;;15.73;10.67;;;20.80;41.80;;;;;;5058905;28;46456;-70
2023/09/10 05:58:41;;;;;;;17.30;12.33;;;21.00;39.60;;;;;;5056201;28;46323;-69
2023/09/10 06:01:07;;;;;;;18.50;13.10;;;21.00;37.80;;;;;;5060388;28;49052;-70
2023/09/10 06:03:33;;;;;;;19.20;13.53;;;20.80;37.70;;;;;;5057310;27;46719;-69
2023/09/10 06:06:01;;;;;;;17.73;14.83;;;20.60;38.30;;;;;;5061931;27;46463;-69
2023/09/10 06:08:30;;;;;;;18.40;14.13;;;20.50;38.60;;;;;;5062004;28;46430;-70
2023/09/10 06:10:56;;;;;;;17.80;13.67;;;20.40;39.50;;;;;;5056682;28;46489;-68
2023/09/10 06:13:22;;;;;;;21.53;12.97;;;20.50;40.50;;;;;;5048878;28;46600;-70
2023/09/10 06:15:47;;;;;;;18.60;13.97;;;21.00;40.50;;;;;;5050452;28;46753;-68
2023/09/10 06:18:13;;;;;;;19.20;15.40;;;21.50;36.60;;;;;;5059865;28;46531;-70
2023/09/10 06:20:39;;;;;;;18.77;15.30;;;21.50;36.60;;;;;;5056812;28;47964;-70
2023/09/10 06:23:04;;;;;;;22.70;16.37;;;21.30;37.40;;;;;;5054170;28;46431;-68
2023/09/10 06:25:31;;;;;;;21.63;16.00;;;21.20;37.80;;;;;;5059682;27;46547;-69
2023/09/10 06:27:57;;;;;;;23.13;15.53;;;21.20;38.20;;;;;;5060135;27;46585;-69
2023/09/10 06:30:23;;;;;;;27.57;17.23;;;21.40;38.40;;;;;;5056086;28;47580;-71
2023/09/10 06:32:52;;;;;;;22.57;17.60;;;21.40;38.30;;;;;;5055775;28;46474;-69
2023/09/10 06:35:17;;;;;;;24.43;15.67;;;21.50;38.80;;;;;;5067309;28;46317;-69
2023/09/10 06:37:45;;;;;;;23.00;15.53;;;21.60;38.90;;;;;;5057548;28;45891;-68
2023/09/10 06:40:11;;;;;;;19.37;16.43;;;21.70;38.90;;;;;;5052731;28;48918;-70
2023/09/10 06:42:36;;;;;;;18.23;15.30;;;21.70;39.10;;;;;;5054562;28;46468;-71
2023/09/10 06:45:02;;;;;;;25.27;15.43;;;21.90;39.30;;;;;;5052975;28;46581;-73
2023/09/10 06:47:28;;;;;;;18.30;14.43;;;22.00;39.20;;;;;;5054025;28;46457;-70
2023/09/10 06:49:53;;;;;;;23.60;15.93;;;22.10;39.30;;;;;;5056735;28;48810;-70
2023/09/10 06:52:19;;;;;;;18.60;14.33;;;22.20;39.30;;;;;;5052979;28;46472;-70
2023/09/10 06:54:46;;;;;;;21.23;14.63;;;22.40;39.10;;;;;;5056937;27;46465;-68
2023/09/10 06:57:13;;;;;;;18.40;15.23;;;22.60;39.00;;;;;;5052951;28;46492;-72
2023/09/10 06:59:39;;;;;;;19.57;15.40;;;22.70;38.60;;;;;;5054206;27;46883;-71
2023/09/10 07:02:06;;;;;;;21.20;16.03;;;22.90;38.70;;;;;;5058372;28;46337;-71
2023/09/10 07:04:32;;;;;;;18.17;14.60;;;23.00;38.40;;;;;;5054686;28;46412;-71
2023/09/10 07:06:58;;;;;;;17.70;15.30;;;23.20;38.20;;;;;;5057038;28;46650;-70
2023/09/10 07:09:24;;;;;;;18.03;14.40;;;23.40;37.70;;;;;;5059741;28;48970;-69
2023/09/10 07:11:54;;;;;;;15.57;12.07;;;23.50;37.20;;;;;;5053698;27;46885;-69
2023/09/10 07:14:20;;;;;;;13.97;12.17;;;23.60;37.40;;;;;;5059364;28;46725;-69
2023/09/10 07:16:47;;;;;;;18.70;13.37;;;23.70;37.40;;;;;;5054115;27;46585;-69
2023/09/10 07:19:13;;;;;;;23.23;14.43;;;23.70;37.40;;;;;;5052371;28;48955;-69
2023/09/10 07:21:39;;;;;;;17.23;13.50;;;23.80;37.50;;;;;;5054873;28;46482;-69
2023/09/10 07:24:06;;;;;;;23.03;14.20;;;23.90;37.60;;;;;;5055651;28;46470;-70
2023/09/10 07:26:38;;;;;;;16.67;14.60;;;24.00;37.60;;;;;;5059013;28;46375;-69
2023/09/10 07:29:08;;;;;;;15.83;13.80;;;24.00;37.40;;;;;;5055321;28;48785;-70
2023/09/10 07:31:35;;;;;;;19.80;13.17;;;24.10;37.30;;;;;;5053080;28;46957;-70
2023/09/10 07:34:02;;;;;;;16.73;12.60;;;24.20;36.90;;;;;;5058059;27;46691;-70
2023/09/10 07:36:28;;;;;;;15.90;13.70;;;24.30;36.70;;;;;;5055143;28;46896;-70
2023/09/10 07:38:55;;;;;;;28.43;14.00;;;24.40;36.40;;;;;;5056569;28;46451;-69
2023/09/10 07:41:21;;;;;;;16.03;12.13;;;24.60;36.10;;;;;;5060226;28;46430;-71
2023/09/10 07:43:46;;;;;;;16.30;13.53;;;24.70;35.60;;;;;;5055197;28;46485;-69
2023/09/10 07:46:12;;;;;;;17.87;14.47;;;24.80;35.20;;;;;;5062854;28;46596;-70
2023/09/10 07:48:38;;;;;;;15.60;12.90;;;24.80;35.00;;;;;;5054928;28;48090;-71
2023/09/10 07:51:05;;;;;;;18.27;13.63;;;25.00;34.50;;;;;;5062056;28;46851;-71
2023/09/10 07:53:31;;;;;;;16.23;12.43;;;25.00;34.40;;;;;;5056525;28;46571;-69
2023/09/10 07:55:57;;;;;;;16.37;12.87;;;24.90;34.60;;;;;;5061949;28;46480;-69
2023/09/10 07:58:23;;;;;;;15.57;13.07;;;25.00;34.40;;;;;;5060566;27;47498;-70
2023/09/10 08:00:56;;;;;;;13.83;10.60;;;25.20;34.10;;;;;;5061000;28;46352;-70
2023/09/10 08:03:21;;;;;;;18.23;13.47;;;25.30;33.20;;;;;;5061826;27;46426;-70
2023/09/10 08:05:47;;;;;;;15.43;12.00;;;25.50;32.60;;;;;;5053915;28;47082;-69
2023/09/10 08:08:13;;;;;;;16.40;12.70;;;25.50;32.30;;;;;;5057582;28;47793;-71
2023/09/10 08:10:39;;;;;;;14.27;10.70;;;25.50;32.00;;;;;;5059981;28;46399;-71
2023/09/10 08:13:04;;;;;;;15.50;11.50;;;25.60;31.50;;;;;;5059297;28;46482;-70
2023/09/10 08:15:33;;;;;;;18.77;12.70;;;25.70;30.90;;;;;;5057533;28;46748;-69
2023/09/10 08:17:59;;;;;;;38.83;13.20;;;25.80;30.60;;;;;;5065864;27;46551;-69
2023/09/10 08:20:25;;;;;;;15.30;11.10;;;25.80;30.40;;;;;;5059919;28;45931;-71
2023/09/10 08:22:51;;;;;;;13.93;11.40;;;25.90;30.10;;;;;;5057173;28;46535;-70
2023/09/10 08:25:16;;;;;;;13.97;11.50;;;25.90;29.90;;;;;;5056112;27;46471;-71
2023/09/10 08:27:42;;;;;;;15.13;11.90;;;26.00;29.90;;;;;;5060450;28;49213;-71
2023/09/10 08:30:11;;;;;;;14.67;11.87;;;26.10;29.90;;;;;;5054095;27;46414;-72
2023/09/10 08:32:37;;;;;;;13.33;10.10;;;26.30;29.50;;;;;;5059595;28;46398;-71
2023/09/10 08:35:04;;;;;;;14.97;10.40;;;26.40;28.90;;;;;;5060623;28;46567;-70
2023/09/10 08:37:30;;;;;;;13.87;10.57;;;26.50;28.20;;;;;;5059189;28;47756;-69
2023/09/10 08:39:59;;;;;;;12.87;10.30;;;26.50;27.80;;;;;;5057941;27;46371;-70
2023/09/10 08:43:01;;;;;;;14.47;10.83;;;26.70;26.90;;;;;;5080174;22;46418;-68
2023/09/10 08:45:27;;;;;;;16.17;10.53;;;26.80;26.90;;;;;;5061862;28;46455;-70
2023/09/10 08:47:55;;;;;;;15.20;10.60;;;27.00;27.00;;;;;;5060951;28;46506;-70
2023/09/10 08:50:23;;;;;;;12.37;10.20;;;27.10;26.90;;;;;;5073707;28;46374;-68
2023/09/10 08:52:49;;;;;;;12.60;9.90;;;27.10;26.60;;;;;;5063160;28;46503;-69
2023/09/10 08:55:15;;;;;;;14.00;10.90;;;27.20;26.40;;;;;;5059787;28;46532;-67
2023/09/10 08:57:45;;;;;;;14.57;9.60;;;27.00;26.10;;;;;;5070831;28;46395;-67
2023/09/10 09:00:12;;;;;;;13.10;10.23;;;27.10;25.90;;;;;;5029739;28;46704;-69
2023/09/10 09:02:42;;;;;;;11.60;10.33;;;27.20;25.60;;;;;;5058408;28;46547;-70
2023/09/10 09:05:09;;;;;;;11.10;8.87;;;27.20;25.50;;;;;;5063612;28;46603;-71
2023/09/10 09:07:54;;;;;;;12.73;9.37;;;27.30;25.00;;;;;;5054676;27;46805;-70
2023/09/10 09:10:28;;;;;;;12.30;10.00;;;27.50;23.90;;;;;;5057534;28;46502;-70
2023/09/10 09:13:01;;;;;;;14.80;10.07;;;27.60;23.40;;;;;;5057229;28;46786;-69
2023/09/10 09:15:27;;;;;;;12.00;10.37;;;27.50;23.00;;;;;;5043235;28;46742;-68
2023/09/10 09:17:56;;;;;;;12.80;10.43;;;27.50;22.80;;;;;;5067220;28;46425;-69
2023/09/10 09:20:23;;;;;;;15.43;9.63;;;27.60;22.60;;;;;;5054096;28;45804;-69
2023/09/10 09:22:54;;;;;;;13.70;10.03;;;27.60;22.60;;;;;;5058750;28;46758;-70
2023/09/10 09:25:20;;;;;;;13.90;8.80;;;27.80;22.50;;;;;;5053814;28;46680;-70
2023/09/10 09:27:48;;;;;;;11.50;8.93;;;27.90;22.00;;;;;;5062638;28;47213;-72
2023/09/10 09:30:14;;;;;;;17.53;9.23;;;28.00;21.30;;;;;;5052104;28;46706;-67
2023/09/10 09:32:40;;;;;;;13.20;8.70;;;28.10;20.80;;;;;;5058155;28;46373;-67
2023/09/10 09:35:10;;;;;;;10.27;8.70;;;28.10;20.30;;;;;;5060083;28;46316;-68
2023/09/10 09:37:36;;;;;;;9.87;8.20;;;28.10;19.90;;;;;;5046813;28;49111;-68
2023/09/10 09:40:22;;;;;;;12.37;8.00;;;28.20;19.90;;;;;;5057589;28;46362;-68
2023/09/10 09:42:48;;;;;;;10.07;8.40;;;28.40;20.00;;;;;;5039536;28;46520;-67
2023/09/10 09:45:14;;;;;;;13.70;8.57;;;28.50;18.80;;;;;;5059260;28;46475;-68
2023/09/10 09:47:45;;;;;;;9.57;8.13;;;28.50;18.40;;;;;;5061960;28;46000;-67
2023/09/10 09:50:17;;;;;;;13.33;8.80;;;28.50;17.80;;;;;;5061967;28;46737;-67
2023/09/10 09:52:50;;;;;;;9.50;7.87;;;28.40;17.70;;;;;;5059895;28;46161;-67
2023/09/10 09:55:16;;;;;;;11.43;8.93;;;28.40;17.80;;;;;;5059942;28;46678;-66
2023/09/10 09:57:45;;;;;;;13.70;8.70;;;28.60;17.70;;;;;;5060689;28;46336;-67
2023/09/10 10:00:11;;;;;;;10.03;8.53;;;28.70;17.40;;;;;;5060821;28;46305;-68
2023/09/10 10:02:37;;;;;;;8.60;7.70;;;28.60;16.80;;;;;;5062852;28;45882;-69
2023/09/10 10:05:06;;;;;;;11.00;7.97;;;28.60;16.80;;;;;;5058137;28;46388;-69
2023/09/10 10:07:37;;;;;;;11.40;8.60;;;28.70;16.90;;;;;;5049032;28;46760;-69
2023/09/10 10:10:17;;;;;;;10.70;7.00;;;28.90;16.50;;;;;;5046844;28;46131;-70
2023/09/10 10:12:44;;;;;;;12.60;7.10;;;28.80;15.80;;;;;;5061973;28;46460;-69
2023/09/10 10:15:11;;;;;;;8.50;7.37;;;28.80;15.60;;;;;;5057451;28;46736;-70
2023/09/10 10:17:39;;;;;;;10.30;7.23;;;28.90;15.50;;;;;;5061053;28;48292;-70
2023/09/10 10:20:07;;;;;;;11.47;7.40;;;28.90;14.90;;;;;;5067916;28;46365;-70
2023/09/10 10:22:34;;;;;;;8.70;7.10;;;28.90;14.20;;;;;;5060930;27;46494;-71
2023/09/10 10:25:00;;;;;;;11.27;7.87;;;28.80;13.90;;;;;;5060921;28;46485;-70
2023/09/10 10:27:28;;;;;;;8.60;7.00;;;28.90;14.40;;;;;;5062901;28;46671;-70
2023/09/10 10:29:53;;;;;;;9.67;6.83;;;29.00;12.80;;;;;;5061669;28;46621;-69
2023/09/10 10:32:19;;;;;;;9.30;6.23;;;29.00;12.10;;;;;;5055019;28;46566;-69
2023/09/10 10:34:56;;;;;;;8.73;6.87;;;29.00;11.60;;;;;;5059167;28;46436;-69
2023/09/10 10:37:28;;;;;;;18.27;6.93;;;29.00;11.40;;;;;;5044938;28;49340;-69
2023/09/10 10:39:59;;;;;;;15.83;6.50;;;28.80;11.10;;;;;;5063407;28;46578;-70
2023/09/10 10:42:35;;;;;;;10.60;6.83;;;28.70;10.40;;;;;;5059343;27;46313;-69
2023/09/10 10:45:06;;;;;;;11.13;7.07;;;28.70;10.60;;;;;;5059127;28;46422;-69
2023/09/10 10:47:37;;;;;;;9.83;6.43;;;28.90;10.80;;;;;;5063453;28;47200;-69
2023/09/10 10:50:09;;;;;;;9.67;7.17;;;28.90;10.50;;;;;;5059561;28;46470;-69
2023/09/10 10:52:47;;;;;;;12.90;6.23;;;29.00;10.30;;;;;;5063149;28;46473;-68
2023/09/10 10:55:14;;;;;;;9.80;6.80;;;29.10;10.00;;;;;;5054048;28;46458;-67
2023/09/10 10:57:40;;;;;;;9.57;6.00;;;29.30;9.90;;;;;;5056058;28;46521;-67
2023/09/10 11:00:09;;;;;;;8.57;5.90;;;29.50;9.70;;;;;;5060487;28;46901;-68
2023/09/10 11:02:35;;;;;;;8.80;6.20;;;29.50;9.20;;;;;;5058425;28;46289;-66
2023/09/10 11:05:03;;;;;;;8.50;6.03;;;29.60;9.00;;;;;;5034568;28;46603;-69
2023/09/10 11:07:30;;;;;;;10.17;5.97;;;29.60;8.70;;;;;;5055315;28;47329;-67
2023/09/10 11:10:20;;;;;;;7.13;6.20;;;29.80;8.20;;;;;;5054931;28;46392;-67
2023/09/10 11:13:18;;;;;;;9.10;6.50;;;29.90;7.60;;;;;;5056580;28;46498;-67
2023/09/10 11:16:10;;;;;;;8.50;5.70;;;30.00;7.30;;;;;;5025792;28;46470;-67
2023/09/10 11:18:36;;;;;;;10.87;6.60;;;30.00;7.00;;;;;;5051115;28;46723;-69
2023/09/10 11:21:05;;;;;;;8.33;5.43;;;29.70;6.80;;;;;;5040706;28;46487;-67
2023/09/10 11:23:32;;;;;;;8.33;5.27;;;29.60;6.70;;;;;;5054506;28;46243;-68
2023/09/10 11:26:14;;;;;;;8.37;5.97;;;29.50;7.00;;;;;;5053381;28;46702;-67
2023/09/10 11:28:50;;;;;;;8.17;6.03;;;29.50;6.70;;;;;;5049838;28;46440;-69
2023/09/10 11:31:41;;;;;;;9.17;6.10;;;29.70;6.40;;;;;;5058419;28;46996;-72
2023/09/10 11:34:27;;;;;;;9.40;6.03;;;29.80;6.00;;;;;;5057846;28;46480;-70
2023/09/10 11:37:02;;;;;;;10.17;5.70;;;29.80;6.00;;;;;;5059804;28;46397;-70
2023/09/10 11:39:29;;;;;;;9.80;5.93;;;29.80;6.20;;;;;;5058206;28;47333;-69
2023/09/10 11:41:57;;;;;;;9.00;6.27;;;29.90;6.80;;;;;;5054345;28;46757;-71
2023/09/10 11:44:23;;;;;;;8.10;5.97;;;29.90;6.70;;;;;;5057179;28;46519;-70
2023/09/10 11:46:51;;;;;;;14.23;6.10;;;29.90;6.70;;;;;;5062753;27;45994;-70
2023/09/10 11:49:17;;;;;;;8.73;5.50;;;29.90;6.80;;;;;;5056510;28;48416;-69
2023/09/10 11:51:44;;;;;;;7.30;5.80;;;30.00;6.70;;;;;;5060132;28;46487;-69
2023/09/10 11:54:16;;;;;;;10.30;6.30;;;30.00;6.80;;;;;;5059730;28;46200;-69
2023/09/10 11:56:44;;;;;;;6.77;5.30;;;30.10;6.60;;;;;;5065811;28;46481;-70
2023/09/10 11:59:10;;;;;;;8.10;5.47;;;30.10;6.40;;;;;;5060306;28;47606;-70
2023/09/10 12:01:35;;;;;;;13.70;5.73;;;30.10;6.20;;;;;;5060315;28;46960;-70
2023/09/10 12:04:02;;;;;;;6.70;5.67;;;30.10;6.20;;;;;;5059770;28;46502;-70
2023/09/10 12:06:28;;;;;;;7.33;5.87;;;30.20;6.30;;;;;;5057632;28;46730;-70
2023/09/10 12:08:54;;;;;;;8.40;6.10;;;30.20;6.40;;;;;;5048473;28;46927;-70
2023/09/10 12:11:21;;;;;;;13.33;5.90;;;30.10;6.20;;;;;;5052855;27;46743;-71
2023/09/10 12:13:47;;;;;;;7.47;5.83;;;30.10;6.20;;;;;;5061810;28;46476;-71
2023/09/10 12:16:13;;;;;;;6.87;5.97;;;30.00;6.10;;;;;;5064229;28;46485;-70
2023/09/10 12:18:39;;;;;;;10.00;6.70;;;30.00;6.10;;;;;;5064734;28;46687;-71
2023/09/10 12:21:05;;;;;;;8.93;6.23;;;29.90;5.90;;;;;;5061174;28;45758;-71
2023/09/10 12:23:32;;;;;;;8.40;5.67;;;29.80;6.90;;;;;;5058998;27;46429;-70
2023/09/10 12:25:59;;;;;;;7.87;5.87;;;29.80;5.80;;;;;;5061644;28;46459;-70
2023/09/10 12:28:25;;;;;;;10.30;6.00;;;29.90;5.80;;;;;;5059400;28;46554;-70
2023/09/10 12:30:51;;;;;;;8.67;5.57;;;30.00;5.50;;;;;;5044219;28;46199;-70
2023/09/10 12:33:20;;;;;;;7.47;5.90;;;30.10;5.40;;;;;;5064313;28;46553;-71
2023/09/10 12:35:46;;;;;;;7.47;6.00;;;30.20;5.20;;;;;;5064644;28;46400;-70